sensor_id;sensor_type;location;lat;lon;timestamp;pressure;altitude;pressure_sealevel;temperature;humidity
19596;BME280;9945;46.010;8.946;2023-01-28T07:23:30;97408.16;;;2.24;74.32
19596;BME280;9945;46.010;8.946;2023-01-28T07:26:00;97407.34;;;2.38;73.82
19596;BME280;9945;46.010;8.946;2023-01-28T07:28:27;97410.09;;;2.49;73.08
19596;BME280;9945;46.010;8.946;2023-01-28T07:30:54;97407.69;;;2.60;72.56
19596;BME280;9945;46.010;8.946;2023-01-28T07:33:21;97407.19;;;2.82;71.11
19596;BME280;9945;46.010;8.946;2023-01-28T07:35:48;97415.19;;;2.92;70.11
19596;BME280;9945;46.010;8.946;2023-01-28T07:38:15;97412.69;;;3.04;70.26
19596;BME280;9945;46.010;8.946;2023-01-28T07:40:43;97425.66;;;3.17;69.46
19596;BME280;9945;46.010;8.946;2023-01-28T07:43:10;97421.47;;;3.29;69.12
19596;BME280;9945;46.010;8.946;2023-01-28T07:45:37;97425.41;;;3.34;69.03
19596;BME280;9945;46.010;8.946;2023-01-28T07:48:06;97422.97;;;3.46;67.37
19596;BME280;9945;46.010;8.946;2023-01-28T07:50:35;97428.19;;;3.58;68.36
19596;BME280;9945;46.010;8.946;2023-01-28T07:53:04;97424.28;;;3.78;67.38
19596;BME280;9945;46.010;8.946;2023-01-28T07:55:32;97427.84;;;4.02;65.72
19596;BME280;9945;46.010;8.946;2023-01-28T07:58:03;97429.13;;;4.22;63.80
19596;BME280;9945;46.010;8.946;2023-01-28T08:00:32;97430.97;;;4.20;63.85
19596;BME280;9945;46.010;8.946;2023-01-28T08:03:00;97436.28;;;4.31;64.32
19596;BME280;9945;46.010;8.946;2023-01-28T08:05:32;97434.41;;;4.59;63.27
19596;BME280;9945;46.010;8.946;2023-01-28T08:08:03;97440.19;;;4.75;61.60
19596;BME280;9945;46.010;8.946;2023-01-28T08:10:30;97434.00;;;5.01;61.12
19596;BME280;9945;46.010;8.946;2023-01-28T08:12:57;97443.56;;;5.24;59.15
19596;BME280;9945;46.010;8.946;2023-01-28T08:15:27;97445.50;;;5.33;57.53
19596;BME280;9945;46.010;8.946;2023-01-28T08:17:55;97446.78;;;5.52;57.28
19596;BME280;9945;46.010;8.946;2023-01-28T08:20:24;97445.31;;;5.71;56.91
19596;BME280;9945;46.010;8.946;2023-01-28T08:22:52;97457.00;;;5.90;55.60
19596;BME280;9945;46.010;8.946;2023-01-28T08:25:19;97451.47;;;6.05;54.80
19596;BME280;9945;46.010;8.946;2023-01-28T08:27:46;97457.44;;;6.19;54.93
19596;BME280;9945;46.010;8.946;2023-01-28T08:30:13;97453.31;;;6.27;54.41
19596;BME280;9945;46.010;8.946;2023-01-28T08:32:42;97457.94;;;6.35;54.04
19596;BME280;9945;46.010;8.946;2023-01-28T08:35:09;97465.78;;;6.46;53.06
19596;BME280;9945;46.010;8.946;2023-01-28T08:37:35;97462.69;;;6.52;53.65
19596;BME280;9945;46.010;8.946;2023-01-28T08:40:03;97472.75;;;6.68;53.00
19596;BME280;9945;46.010;8.946;2023-01-28T08:42:30;97466.97;;;6.75;53.44
19596;BME280;9945;46.010;8.946;2023-01-28T08:44:57;97461.66;;;6.88;53.44
19596;BME280;9945;46.010;8.946;2023-01-28T08:47:24;97470.16;;;7.01;52.78
19596;BME280;9945;46.010;8.946;2023-01-28T08:49:52;97473.19;;;7.29;52.30
19596;BME280;9945;46.010;8.946;2023-01-28T08:52:19;97472.19;;;7.52;51.33
19596;BME280;9945;46.010;8.946;2023-01-28T08:54:46;97482.59;;;7.63;50.17
19596;BME280;9945;46.010;8.946;2023-01-28T08:57:13;97477.78;;;7.79;49.41
19596;BME280;9945;46.010;8.946;2023-01-28T08:59:40;97488.16;;;8.22;48.36
19596;BME280;9945;46.010;8.946;2023-01-28T09:02:12;97491.44;;;8.56;47.07
19596;BME280;9945;46.010;8.946;2023-01-28T09:04:39;97490.09;;;8.92;45.67
19596;BME280;9945;46.010;8.946;2023-01-28T09:07:08;97488.88;;;9.27;44.54
19596;BME280;9945;46.010;8.946;2023-01-28T09:09:35;97488.38;;;9.52;45.64
19596;BME280;9945;46.010;8.946;2023-01-28T09:12:02;97483.72;;;9.75;44.56
19596;BME280;9945;46.010;8.946;2023-01-28T09:14:30;97478.78;;;9.91;44.02
19596;BME280;9945;46.010;8.946;2023-01-28T09:16:57;97485.97;;;10.18;43.46
19596;BME280;9945;46.010;8.946;2023-01-28T09:19:24;97484.44;;;10.35;43.40
19596;BME280;9945;46.010;8.946;2023-01-28T09:21:51;97486.91;;;10.46;41.61
19596;BME280;9945;46.010;8.946;2023-01-28T09:24:19;97491.28;;;10.65;42.02
19596;BME280;9945;46.010;8.946;2023-01-28T09:26:47;97497.50;;;11.37;40.32
19596;BME280;9945;46.010;8.946;2023-01-28T09:29:14;97496.34;;;11.95;38.63
19596;BME280;9945;46.010;8.946;2023-01-28T09:31:42;97498.50;;;12.35;38.51
19596;BME280;9945;46.010;8.946;2023-01-28T09:34:09;97503.19;;;13.60;36.15
19596;BME280;9945;46.010;8.946;2023-01-28T09:36:36;97498.22;;;14.72;34.23
19596;BME280;9945;46.010;8.946;2023-01-28T09:39:03;97494.56;;;15.84;32.76
19596;BME280;9945;46.010;8.946;2023-01-28T09:41:43;97500.16;;;16.80;30.55
19596;BME280;9945;46.010;8.946;2023-01-28T09:44:28;97493.22;;;17.82;28.80
19596;BME280;9945;46.010;8.946;2023-01-28T09:47:03;97494.56;;;18.78;27.52
19596;BME280;9945;46.010;8.946;2023-01-28T09:49:33;97488.47;;;19.46;26.86
19596;BME280;9945;46.010;8.946;2023-01-28T09:52:01;97496.78;;;20.45;25.47
19596;BME280;9945;46.010;8.946;2023-01-28T09:54:37;97493.66;;;21.47;23.97
19596;BME280;9945;46.010;8.946;2023-01-28T09:57:13;97496.16;;;22.31;22.84
19596;BME280;9945;46.010;8.946;2023-01-28T09:59:42;97502.13;;;20.71;24.07
19596;BME280;9945;46.010;8.946;2023-01-28T10:02:32;97494.38;;;22.81;22.50
19596;BME280;9945;46.010;8.946;2023-01-28T10:05:11;97496.06;;;22.44;21.97
19596;BME280;9945;46.010;8.946;2023-01-28T10:07:46;97494.84;;;23.58;21.40
19596;BME280;9945;46.010;8.946;2023-01-28T10:10:24;97496.91;;;24.40;20.65
19596;BME280;9945;46.010;8.946;2023-01-28T10:13:21;97493.50;;;25.56;19.76
19596;BME280;9945;46.010;8.946;2023-01-28T10:16:01;97492.81;;;26.58;18.64
19596;BME280;9945;46.010;8.946;2023-01-28T10:18:34;97489.19;;;27.36;17.57
19596;BME280;9945;46.010;8.946;2023-01-28T10:21:09;97488.94;;;27.76;17.64
19596;BME280;9945;46.010;8.946;2023-01-28T10:23:45;97482.56;;;28.57;16.75
19596;BME280;9945;46.010;8.946;2023-01-28T10:26:21;97485.16;;;29.11;16.09
19596;BME280;9945;46.010;8.946;2023-01-28T10:28:53;97487.66;;;29.70;16.56
19596;BME280;9945;46.010;8.946;2023-01-28T10:31:22;97481.50;;;29.80;15.59
19596;BME280;9945;46.010;8.946;2023-01-28T10:33:49;97468.16;;;30.30;15.61
19596;BME280;9945;46.010;8.946;2023-01-28T10:36:16;97466.78;;;30.13;15.87
19596;BME280;9945;46.010;8.946;2023-01-28T10:38:43;97466.31;;;31.17;15.09
19596;BME280;9945;46.010;8.946;2023-01-28T10:41:19;97464.03;;;31.59;13.94
19596;BME280;9945;46.010;8.946;2023-01-28T10:43:47;97469.97;;;31.77;13.90
19596;BME280;9945;46.010;8.946;2023-01-28T10:46:19;97465.72;;;31.40;14.57
19596;BME280;9945;46.010;8.946;2023-01-28T10:48:54;97461.06;;;31.66;15.04
19596;BME280;9945;46.010;8.946;2023-01-28T10:51:30;97463.88;;;31.05;14.79
19596;BME280;9945;46.010;8.946;2023-01-28T10:53:58;97458.69;;;31.44;14.50
19596;BME280;9945;46.010;8.946;2023-01-28T10:56:27;97453.31;;;32.04;14.18
19596;BME280;9945;46.010;8.946;2023-01-28T10:58:59;97452.81;;;30.81;14.46
19596;BME280;9945;46.010;8.946;2023-01-28T11:01:39;97449.03;;;30.57;15.09
19596;BME280;9945;46.010;8.946;2023-01-28T11:04:14;97444.69;;;30.81;14.57
19596;BME280;9945;46.010;8.946;2023-01-28T11:06:51;97449.47;;;31.40;13.85
19596;BME280;9945;46.010;8.946;2023-01-28T11:09:20;97437.88;;;31.99;13.79
19596;BME280;9945;46.010;8.946;2023-01-28T11:11:47;97431.28;;;32.20;13.84
19596;BME280;9945;46.010;8.946;2023-01-28T11:14:22;97434.78;;;31.67;14.48
19596;BME280;9945;46.010;8.946;2023-01-28T11:16:53;97432.81;;;31.87;13.71
19596;BME280;9945;46.010;8.946;2023-01-28T11:19:24;97426.47;;;32.02;13.44
19596;BME280;9945;46.010;8.946;2023-01-28T11:21:54;97436.63;;;32.30;13.46
19596;BME280;9945;46.010;8.946;2023-01-28T11:24:25;97438.84;;;32.23;13.22
19596;BME280;9945;46.010;8.946;2023-01-28T11:26:56;97428.28;;;32.22;13.19
19596;BME280;9945;46.010;8.946;2023-01-28T11:29:26;97433.19;;;32.54;13.07
19596;BME280;9945;46.010;8.946;2023-01-28T11:31:57;97439.06;;;32.71;12.76
19596;BME280;9945;46.010;8.946;2023-01-28T11:34:27;97427.25;;;32.86;12.95
19596;BME280;9945;46.010;8.946;2023-01-28T11:37:00;97430.44;;;33.22;12.47
19596;BME280;9945;46.010;8.946;2023-01-28T11:39:29;97423.34;;;33.21;12.52
19596;BME280;9945;46.010;8.946;2023-01-28T11:42:10;97418.72;;;33.74;12.64
19596;BME280;9945;46.010;8.946;2023-01-28T11:44:37;97411.81;;;33.82;12.23
19596;BME280;9945;46.010;8.946;2023-01-28T11:47:31;97416.09;;;33.64;12.19
19596;BME280;9945;46.010;8.946;2023-01-28T11:50:21;97405.63;;;33.52;12.91
19596;BME280;9945;46.010;8.946;2023-01-28T11:52:59;97405.47;;;33.86;11.82
19596;BME280;9945;46.010;8.946;2023-01-28T11:55:44;97401.44;;;34.21;12.09
19596;BME280;9945;46.010;8.946;2023-01-28T11:58:21;97388.69;;;33.60;12.04
19596;BME280;9945;46.010;8.946;2023-01-28T12:00:55;97385.03;;;33.51;12.48
19596;BME280;9945;46.010;8.946;2023-01-28T12:03:53;97382.78;;;34.33;11.95
19596;BME280;9945;46.010;8.946;2023-01-28T12:06:42;97381.03;;;34.05;12.61
19596;BME280;9945;46.010;8.946;2023-01-28T12:09:19;97374.78;;;34.55;11.29
19596;BME280;9945;46.010;8.946;2023-01-28T12:12:01;97371.25;;;34.55;12.00
19596;BME280;9945;46.010;8.946;2023-01-28T12:15:03;97360.66;;;34.21;11.07
19596;BME280;9945;46.010;8.946;2023-01-28T12:17:43;97363.03;;;34.60;10.94
19596;BME280;9945;46.010;8.946;2023-01-28T12:20:21;97359.13;;;34.34;11.61
19596;BME280;9945;46.010;8.946;2023-01-28T12:23:06;97350.94;;;34.66;10.62
19596;BME280;9945;46.010;8.946;2023-01-28T12:25:45;97345.63;;;34.88;10.47
19596;BME280;9945;46.010;8.946;2023-01-28T12:28:27;97340.09;;;34.47;10.61
19596;BME280;9945;46.010;8.946;2023-01-28T12:31:12;97332.84;;;34.89;10.80
19596;BME280;9945;46.010;8.946;2023-01-28T12:33:51;97334.66;;;34.94;10.13
19596;BME280;9945;46.010;8.946;2023-01-28T12:36:40;97326.00;;;34.91;10.72
19596;BME280;9945;46.010;8.946;2023-01-28T12:39:19;97324.75;;;35.52;10.32
19596;BME280;9945;46.010;8.946;2023-01-28T12:41:58;97330.56;;;35.87;10.13
19596;BME280;9945;46.010;8.946;2023-01-28T12:44:30;97322.28;;;33.29;10.89
19596;BME280;9945;46.010;8.946;2023-01-28T12:47:01;97317.34;;;34.57;10.12
19596;BME280;9945;46.010;8.946;2023-01-28T12:49:34;97315.13;;;33.94;10.61
19596;BME280;9945;46.010;8.946;2023-01-28T12:52:11;97324.81;;;32.73;11.21
19596;BME280;9945;46.010;8.946;2023-01-28T12:54:56;97315.13;;;31.54;11.75
19596;BME280;9945;46.010;8.946;2023-01-28T12:57:27;97309.38;;;31.07;12.15
19596;BME280;9945;46.010;8.946;2023-01-28T13:00:14;97310.06;;;31.87;12.25
19596;BME280;9945;46.010;8.946;2023-01-28T13:02:46;97305.25;;;33.23;11.24
19596;BME280;9945;46.010;8.946;2023-01-28T13:05:19;97308.44;;;33.68;11.20
19596;BME280;9945;46.010;8.946;2023-01-28T13:07:52;97311.03;;;34.29;10.43
19596;BME280;9945;46.010;8.946;2023-01-28T13:10:26;97318.75;;;34.22;10.62
19596;BME280;9945;46.010;8.946;2023-01-28T13:12:55;97313.88;;;34.70;9.61
19596;BME280;9945;46.010;8.946;2023-01-28T13:15:23;97313.50;;;34.44;10.46
19596;BME280;9945;46.010;8.946;2023-01-28T13:17:57;97311.56;;;34.31;9.87
19596;BME280;9945;46.010;8.946;2023-01-28T13:20:36;97310.03;;;34.06;9.96
19596;BME280;9945;46.010;8.946;2023-01-28T13:23:20;97313.63;;;34.53;9.54
19596;BME280;9945;46.010;8.946;2023-01-28T13:25:49;97315.44;;;34.58;10.02
19596;BME280;9945;46.010;8.946;2023-01-28T13:28:26;97316.63;;;34.84;10.27
19596;BME280;9945;46.010;8.946;2023-01-28T13:31:01;97319.34;;;35.25;9.50
19596;BME280;9945;46.010;8.946;2023-01-28T13:33:30;97315.72;;;35.30;9.71
19596;BME280;9945;46.010;8.946;2023-01-28T13:36:01;97313.47;;;34.90;10.28
19596;BME280;9945;46.010;8.946;2023-01-28T13:38:31;97311.84;;;34.62;10.09
19596;BME280;9945;46.010;8.946;2023-01-28T13:41:00;97313.31;;;34.87;9.49
19596;BME280;9945;46.010;8.946;2023-01-28T13:43:41;97308.03;;;34.90;9.37
19596;BME280;9945;46.010;8.946;2023-01-28T13:46:10;97309.56;;;35.10;10.02
19596;BME280;9945;46.010;8.946;2023-01-28T13:48:41;97315.25;;;34.68;10.57
19596;BME280;9945;46.010;8.946;2023-01-28T13:51:16;97311.84;;;33.36;10.94
19596;BME280;9945;46.010;8.946;2023-01-28T13:53:49;97309.81;;;30.19;11.75
19596;BME280;9945;46.010;8.946;2023-01-28T13:56:22;97309.63;;;27.21;14.27
19596;BME280;9945;46.010;8.946;2023-01-28T13:59:20;97301.94;;;24.49;16.13
19596;BME280;9945;46.010;8.946;2023-01-28T14:05:00;97295.03;;;20.49;17.94
19596;BME280;9945;46.010;8.946;2023-01-28T14:07:42;97311.25;;;19.20;20.07
19596;BME280;9945;46.010;8.946;2023-01-28T14:10:29;97308.91;;;17.94;20.84
19596;BME280;9945;46.010;8.946;2023-01-28T14:16:04;97310.47;;;17.10;22.34
19596;BME280;9945;46.010;8.946;2023-01-28T14:18:36;97315.47;;;16.54;22.47
19596;BME280;9945;46.010;8.946;2023-01-28T14:21:10;97307.81;;;16.30;24.09
19596;BME280;9945;46.010;8.946;2023-01-28T14:23:42;97309.75;;;15.61;25.55
19596;BME280;9945;46.010;8.946;2023-01-28T14:26:41;97317.47;;;15.40;25.39
19596;BME280;9945;46.010;8.946;2023-01-28T14:29:20;97317.94;;;15.21;26.86
19596;BME280;9945;46.010;8.946;2023-01-28T14:31:50;97311.25;;;14.79;28.04
19596;BME280;9945;46.010;8.946;2023-01-28T14:34:22;97316.25;;;14.58;27.57
19596;BME280;9945;46.010;8.946;2023-01-28T14:36:52;97315.16;;;14.36;30.50
19596;BME280;9945;46.010;8.946;2023-01-28T14:39:23;97309.94;;;14.20;29.12
19596;BME280;9945;46.010;8.946;2023-01-28T14:41:54;97313.44;;;13.63;30.38
19596;BME280;9945;46.010;8.946;2023-01-28T14:44:29;97316.56;;;13.59;30.93
19596;BME280;9945;46.010;8.946;2023-01-28T14:47:09;97313.44;;;13.47;32.39
19596;BME280;9945;46.010;8.946;2023-01-28T14:49:45;97309.13;;;13.38;31.01
19596;BME280;9945;46.010;8.946;2023-01-28T14:52:41;97315.22;;;13.31;33.90
19596;BME280;9945;46.010;8.946;2023-01-28T14:55:24;97318.72;;;12.89;34.16
19596;BME280;9945;46.010;8.946;2023-01-28T14:57:58;97327.81;;;12.69;33.40
19596;BME280;9945;46.010;8.946;2023-01-28T15:00:30;97321.56;;;12.62;33.18
19596;BME280;9945;46.010;8.946;2023-01-28T15:02:57;97326.31;;;12.58;34.56
19596;BME280;9945;46.010;8.946;2023-01-28T15:05:26;97328.94;;;12.58;33.95
19596;BME280;9945;46.010;8.946;2023-01-28T15:07:54;97329.41;;;12.54;32.73
19596;BME280;9945;46.010;8.946;2023-01-28T15:10:25;97330.09;;;12.30;35.40
19596;BME280;9945;46.010;8.946;2023-01-28T15:12:57;97339.31;;;12.08;34.64
19596;BME280;9945;46.010;8.946;2023-01-28T15:15:28;97339.16;;;12.09;34.08
19596;BME280;9945;46.010;8.946;2023-01-28T15:18:00;97335.06;;;12.07;34.04
19596;BME280;9945;46.010;8.946;2023-01-28T15:20:28;97339.19;;;11.92;34.85
19596;BME280;9945;46.010;8.946;2023-01-28T15:22:57;97341.19;;;11.90;35.42
19596;BME280;9945;46.010;8.946;2023-01-28T15:25:28;97344.03;;;11.79;35.79
19596;BME280;9945;46.010;8.946;2023-01-28T15:27:58;97349.13;;;11.80;35.15
19596;BME280;9945;46.010;8.946;2023-01-28T15:30:28;97345.16;;;11.76;35.96
19596;BME280;9945;46.010;8.946;2023-01-28T15:33:00;97344.84;;;11.79;35.98
19596;BME280;9945;46.010;8.946;2023-01-28T15:35:28;97342.97;;;11.71;35.85
19596;BME280;9945;46.010;8.946;2023-01-28T15:37:55;97350.44;;;11.66;36.54
19596;BME280;9945;46.010;8.946;2023-01-28T15:40:23;97352.56;;;11.63;36.67
19596;BME280;9945;46.010;8.946;2023-01-28T15:42:52;97359.47;;;11.64;36.91
19596;BME280;9945;46.010;8.946;2023-01-28T15:45:27;97358.78;;;11.62;36.57
19596;BME280;9945;46.010;8.946;2023-01-28T15:48:03;97368.91;;;11.57;36.01
19596;BME280;9945;46.010;8.946;2023-01-28T15:50:33;97374.28;;;11.55;34.92
19596;BME280;9945;46.010;8.946;2023-01-28T15:53:00;97373.09;;;11.50;35.17
19596;BME280;9945;46.010;8.946;2023-01-28T15:55:36;97377.41;;;11.41;35.21
19596;BME280;9945;46.010;8.946;2023-01-28T15:58:28;97374.63;;;11.25;35.55
19596;BME280;9945;46.010;8.946;2023-01-28T16:01:12;97374.19;;;11.12;36.11
19596;BME280;9945;46.010;8.946;2023-01-28T16:03:41;97377.63;;;11.12;36.84
19596;BME280;9945;46.010;8.946;2023-01-28T16:06:11;97378.78;;;11.00;36.68
19596;BME280;9945;46.010;8.946;2023-01-28T16:08:45;97385.78;;;10.82;38.17
19596;BME280;9945;46.010;8.946;2023-01-28T16:11:21;97384.28;;;10.79;38.51
19596;BME280;9945;46.010;8.946;2023-01-28T16:13:49;97387.91;;;10.69;39.36
19596;BME280;9945;46.010;8.946;2023-01-28T16:16:26;97391.31;;;10.42;39.58
19596;BME280;9945;46.010;8.946;2023-01-28T16:18:54;97393.44;;;10.29;41.21
19596;BME280;9945;46.010;8.946;2023-01-28T16:21:23;97402.94;;;10.10;42.68
19596;BME280;9945;46.010;8.946;2023-01-28T16:23:58;97404.88;;;9.99;41.99
19596;BME280;9945;46.010;8.946;2023-01-28T16:26:27;97402.69;;;9.84;42.32
19596;BME280;9945;46.010;8.946;2023-01-28T16:28:54;97408.19;;;9.91;42.93
19596;BME280;9945;46.010;8.946;2023-01-28T16:31:26;97412.19;;;9.85;42.10
19596;BME280;9945;46.010;8.946;2023-01-28T16:33:52;97407.22;;;9.63;42.20
19596;BME280;9945;46.010;8.946;2023-01-28T16:36:19;97412.31;;;9.65;41.68
19596;BME280;9945;46.010;8.946;2023-01-28T16:38:46;97417.53;;;9.74;41.55
19596;BME280;9945;46.010;8.946;2023-01-28T16:41:17;97423.72;;;9.73;41.00
19596;BME280;9945;46.010;8.946;2023-01-28T16:43:47;97425.50;;;9.63;40.17
19596;BME280;9945;46.010;8.946;2023-01-28T16:46:13;97428.94;;;9.54;40.50
19596;BME280;9945;46.010;8.946;2023-01-28T16:48:42;97433.91;;;9.57;40.94
19596;BME280;9945;46.010;8.946;2023-01-28T16:51:14;97439.25;;;9.56;41.88
19596;BME280;9945;46.010;8.946;2023-01-28T16:53:42;97439.25;;;9.56;40.56
19596;BME280;9945;46.010;8.946;2023-01-28T16:56:13;97434.72;;;9.48;41.46
19596;BME280;9945;46.010;8.946;2023-01-28T16:58:40;97439.69;;;9.51;40.23
19596;BME280;9945;46.010;8.946;2023-01-28T17:01:07;97441.59;;;9.49;41.25
19596;BME280;9945;46.010;8.946;2023-01-28T17:03:34;97443.25;;;9.50;42.20
19596;BME280;9945;46.010;8.946;2023-01-28T17:06:02;97445.84;;;9.40;40.69
19596;BME280;9945;46.010;8.946;2023-01-28T17:08:29;97445.97;;;9.39;42.61
19596;BME280;9945;46.010;8.946;2023-01-28T17:10:56;97450.13;;;9.41;41.57
19596;BME280;9945;46.010;8.946;2023-01-28T17:13:23;97455.06;;;9.35;42.37
19596;BME280;9945;46.010;8.946;2023-01-28T17:15:50;97454.06;;;9.36;42.56
19596;BME280;9945;46.010;8.946;2023-01-28T17:18:17;97464.38;;;9.28;42.61
19596;BME280;9945;46.010;8.946;2023-01-28T17:20:44;97461.75;;;9.18;40.85
19596;BME280;9945;46.010;8.946;2023-01-28T17:23:14;97472.88;;;9.20;40.51
19596;BME280;9945;46.010;8.946;2023-01-28T17:25:42;97469.44;;;9.10;41.57
19596;BME280;9945;46.010;8.946;2023-01-28T17:28:09;97473.09;;;8.98;43.03
19596;BME280;9945;46.010;8.946;2023-01-28T17:30:38;97473.88;;;8.89;42.96
19596;BME280;9945;46.010;8.946;2023-01-28T17:33:06;97480.75;;;8.90;42.44
19596;BME280;9945;46.010;8.946;2023-01-28T17:35:33;97485.91;;;8.80;41.00
19596;BME280;9945;46.010;8.946;2023-01-28T17:38:00;97491.22;;;8.69;42.24
19596;BME280;9945;46.010;8.946;2023-01-28T17:40:29;97492.88;;;8.70;41.10
19596;BME280;9945;46.010;8.946;2023-01-28T17:42:56;97501.03;;;8.56;41.48
19596;BME280;9945;46.010;8.946;2023-01-28T17:45:23;97501.75;;;8.58;43.03
19596;BME280;9945;46.010;8.946;2023-01-28T17:47:50;97504.16;;;8.50;42.05
19596;BME280;9945;46.010;8.946;2023-01-28T17:50:17;97509.94;;;8.32;41.75
19596;BME280;9945;46.010;8.946;2023-01-28T17:52:43;97516.69;;;8.35;42.05
19596;BME280;9945;46.010;8.946;2023-01-28T17:55:10;97508.72;;;8.37;42.15
19596;BME280;9945;46.010;8.946;2023-01-28T17:57:38;97519.16;;;8.37;42.91
19596;BME280;9945;46.010;8.946;2023-01-28T18:00:10;97521.44;;;8.30;41.88
19596;BME280;9945;46.010;8.946;2023-01-28T18:02:37;97521.44;;;8.30;42.57
19596;BME280;9945;46.010;8.946;2023-01-28T18:05:04;97524.41;;;8.25;42.41
19596;BME280;9945;46.010;8.946;2023-01-28T18:07:32;97532.50;;;8.22;41.86
19596;BME280;9945;46.010;8.946;2023-01-28T18:09:59;97536.88;;;8.22;42.48
19596;BME280;9945;46.010;8.946;2023-01-28T18:12:26;97538.13;;;8.07;42.29
19596;BME280;9945;46.010;8.946;2023-01-28T18:14:54;97542.53;;;8.06;43.21
19596;BME280;9945;46.010;8.946;2023-01-28T18:17:21;97539.91;;;8.06;42.15
19596;BME280;9945;46.010;8.946;2023-01-28T18:19:54;97540.53;;;7.98;43.51
19596;BME280;9945;46.010;8.946;2023-01-28T18:22:20;97551.06;;;7.97;42.93
19596;BME280;9945;46.010;8.946;2023-01-28T18:24:47;97555.59;;;7.95;42.59
19596;BME280;9945;46.010;8.946;2023-01-28T18:27:14;97550.47;;;7.93;42.79
19596;BME280;9945;46.010;8.946;2023-01-28T18:29:41;97560.13;;;7.82;42.99
19596;BME280;9945;46.010;8.946;2023-01-28T18:32:09;97566.53;;;7.78;44.22
19596;BME280;9945;46.010;8.946;2023-01-28T18:34:36;97572.22;;;7.72;43.28
19596;BME280;9945;46.010;8.946;2023-01-28T18:37:03;97573.88;;;7.73;43.57
19596;BME280;9945;46.010;8.946;2023-01-28T18:39:32;97573.53;;;7.66;43.83
19596;BME280;9945;46.010;8.946;2023-01-28T18:41:59;97581.00;;;7.71;44.25
19596;BME280;9945;46.010;8.946;2023-01-28T18:44:27;97591.41;;;7.71;44.67
19596;BME280;9945;46.010;8.946;2023-01-28T18:46:55;97594.75;;;7.62;44.54
19596;BME280;9945;46.010;8.946;2023-01-28T18:49:24;97598.19;;;7.62;44.93
19596;BME280;9945;46.010;8.946;2023-01-28T18:51:51;97597.47;;;7.60;44.54
19596;BME280;9945;46.010;8.946;2023-01-28T18:54:18;97611.53;;;7.57;44.59
19596;BME280;9945;46.010;8.946;2023-01-28T18:56:47;97617.47;;;7.59;45.83
19596;BME280;9945;46.010;8.946;2023-01-28T18:59:14;97615.56;;;7.50;45.30
19596;BME280;9945;46.010;8.946;2023-01-28T19:01:42;97613.91;;;7.49;45.13
19596;BME280;9945;46.010;8.946;2023-01-28T19:04:09;97627.31;;;7.45;44.93
19596;BME280;9945;46.010;8.946;2023-01-28T19:06:37;97630.97;;;7.42;45.34
19596;BME280;9945;46.010;8.946;2023-01-28T19:09:05;97632.16;;;7.38;45.39
19596;BME280;9945;46.010;8.946;2023-01-28T19:11:33;97632.16;;;7.38;45.92
19596;BME280;9945;46.010;8.946;2023-01-28T19:14:02;97634.06;;;7.36;45.62
19596;BME280;9945;46.010;8.946;2023-01-28T19:16:29;97637.97;;;7.31;45.45
19596;BME280;9945;46.010;8.946;2023-01-28T19:18:57;97642.09;;;7.33;45.54
19596;BME280;9945;46.010;8.946;2023-01-28T19:21:25;97645.41;;;7.35;45.29
19596;BME280;9945;46.010;8.946;2023-01-28T19:23:55;97649.44;;;7.28;44.86
19596;BME280;9945;46.010;8.946;2023-01-28T19:26:23;97655.94;;;7.34;44.51
19596;BME280;9945;46.010;8.946;2023-01-28T19:28:50;97649.06;;;7.33;44.72
19596;BME280;9945;46.010;8.946;2023-01-28T19:31:19;97657.13;;;7.30;44.95
19596;BME280;9945;46.010;8.946;2023-01-28T19:33:47;97656.53;;;7.26;45.12
19596;BME280;9945;46.010;8.946;2023-01-28T19:36:14;97660.78;;;7.27;45.34
19596;BME280;9945;46.010;8.946;2023-01-28T19:38:41;97656.75;;;7.23;45.79
19596;BME280;9945;46.010;8.946;2023-01-28T19:41:10;97662.53;;;7.15;45.43
19596;BME280;9945;46.010;8.946;2023-01-28T19:43:40;97661.03;;;7.13;45.26
19596;BME280;9945;46.010;8.946;2023-01-28T19:46:08;97672.28;;;7.13;45.66
19596;BME280;9945;46.010;8.946;2023-01-28T19:48:38;97668.84;;;7.13;45.93
19596;BME280;9945;46.010;8.946;2023-01-28T19:51:05;97672.84;;;7.17;45.31
19596;BME280;9945;46.010;8.946;2023-01-28T19:53:33;97668.94;;;7.11;45.82
19596;BME280;9945;46.010;8.946;2023-01-28T19:56:00;97670.25;;;7.06;45.89
19596;BME280;9945;46.010;8.946;2023-01-28T19:58:31;97679.00;;;7.05;46.30
19596;BME280;9945;46.010;8.946;2023-01-28T20:01:03;97682.53;;;7.04;46.78
19596;BME280;9945;46.010;8.946;2023-01-28T20:03:30;97682.97;;;6.98;46.96
19596;BME280;9945;46.010;8.946;2023-01-28T20:05:58;97685.72;;;6.96;47.20
19596;BME280;9945;46.010;8.946;2023-01-28T20:08:26;97680.38;;;6.98;47.44
19596;BME280;9945;46.010;8.946;2023-01-28T20:10:52;97685.56;;;6.98;47.82
19596;BME280;9945;46.010;8.946;2023-01-28T20:13:19;97690.09;;;6.96;47.59
19596;BME280;9945;46.010;8.946;2023-01-28T20:15:48;97685.72;;;6.96;47.66
19596;BME280;9945;46.010;8.946;2023-01-28T20:18:15;97695.03;;;6.88;48.40
19596;BME280;9945;46.010;8.946;2023-01-28T20:20:41;97706.13;;;6.90;48.31
19596;BME280;9945;46.010;8.946;2023-01-28T20:23:16;97712.31;;;6.89;48.40
19596;BME280;9945;46.010;8.946;2023-01-28T20:25:48;97710.63;;;6.88;48.29
19596;BME280;9945;46.010;8.946;2023-01-28T20:28:15;97711.59;;;6.87;48.74
19596;BME280;9945;46.010;8.946;2023-01-28T20:30:42;97712.41;;;6.87;48.95
19596;BME280;9945;46.010;8.946;2023-01-28T20:33:10;97711.69;;;6.85;49.00
19596;BME280;9945;46.010;8.946;2023-01-28T20:35:37;97721.47;;;6.81;49.65
19596;BME280;9945;46.010;8.946;2023-01-28T20:38:04;97728.81;;;6.76;49.75
19596;BME280;9945;46.010;8.946;2023-01-28T20:40:31;97726.19;;;6.76;49.86
19596;BME280;9945;46.010;8.946;2023-01-28T20:42:58;97741.84;;;6.64;50.00
19596;BME280;9945;46.010;8.946;2023-01-28T20:45:25;97738.31;;;6.65;50.23
19596;BME280;9945;46.010;8.946;2023-01-28T20:47:52;97748.22;;;6.60;49.84
19596;BME280;9945;46.010;8.946;2023-01-28T20:50:21;97746.47;;;6.60;50.04
19596;BME280;9945;46.010;8.946;2023-01-28T20:52:48;97747.50;;;6.58;49.35
19596;BME280;9945;46.010;8.946;2023-01-28T20:55:15;97751.66;;;6.60;48.72
19596;BME280;9945;46.010;8.946;2023-01-28T20:57:42;97763.09;;;6.58;49.21
19596;BME280;9945;46.010;8.946;2023-01-28T21:00:10;97756.59;;;6.52;49.02
19596;BME280;9945;46.010;8.946;2023-01-28T21:02:37;97767.75;;;6.41;49.20
19596;BME280;9945;46.010;8.946;2023-01-28T21:05:05;97765.53;;;6.48;49.38
19596;BME280;9945;46.010;8.946;2023-01-28T21:07:34;97769.19;;;6.45;49.10